createdAt,value
2023-04-29T00:00:36.656Z,11.90
2023-04-29T00:03:06.886Z,11.80
2023-04-29T00:05:37.152Z,11.90
2023-04-29T00:08:07.656Z,11.80
2023-04-29T00:10:40.220Z,11.90
2023-04-29T00:13:10.330Z,11.80
2023-04-29T00:15:40.404Z,11.80
2023-04-29T00:18:10.528Z,11.80
2023-04-29T00:20:40.820Z,11.80
2023-04-29T00:23:11.115Z,11.80
2023-04-29T00:25:43.657Z,11.80
2023-04-29T00:28:13.791Z,11.80
2023-04-29T00:30:43.833Z,11.80
2023-04-29T00:33:13.818Z,11.80
2023-04-29T00:35:43.765Z,11.80
2023-04-29T00:38:13.724Z,11.80
2023-04-29T00:40:46.588Z,11.80
2023-04-29T00:43:17.110Z,11.80
2023-04-29T00:45:47.213Z,11.80
2023-04-29T00:48:17.423Z,11.70
2023-04-29T00:50:47.816Z,11.80
2023-04-29T00:53:17.841Z,11.80
2023-04-29T00:55:51.823Z,11.70
2023-04-29T00:58:22.948Z,11.70
2023-04-29T01:00:54.692Z,11.70
2023-04-29T01:03:26.276Z,11.70
2023-04-29T01:06:14.274Z,11.70
2023-04-29T01:08:55.924Z,11.70
2023-04-29T01:11:38.350Z,11.60
2023-04-29T01:14:08.614Z,11.60
2023-04-29T01:16:45.768Z,11.70
2023-04-29T01:19:43.036Z,11.70
2023-04-29T01:22:12.988Z,11.70
2023-04-29T01:24:45.521Z,11.60
2023-04-29T01:27:28.690Z,11.60
2023-04-29T01:30:07.103Z,11.60
2023-04-29T01:32:52.620Z,11.60
2023-04-29T01:35:43.178Z,11.50
2023-04-29T01:38:26.676Z,11.60
2023-04-29T01:41:13.640Z,11.60
2023-04-29T01:43:45.103Z,11.60
2023-04-29T01:46:20.081Z,11.60
2023-04-29T01:48:50.396Z,11.60
2023-04-29T01:51:20.483Z,11.50
2023-04-29T01:53:50.488Z,11.50
2023-04-29T01:56:23.055Z,11.50
2023-04-29T01:58:53.000Z,11.40
2023-04-29T02:01:23.001Z,11.50
2023-04-29T02:03:53.233Z,11.30
2023-04-29T02:06:23.966Z,11.20
2023-04-29T02:08:54.003Z,11.30
2023-04-29T02:11:26.883Z,11.30
2023-04-29T02:13:57.523Z,11.20
2023-04-29T02:16:27.662Z,11.20
2023-04-29T02:18:57.682Z,11.10
2023-04-29T02:21:27.746Z,11.10
2023-04-29T02:23:57.937Z,11.10
2023-04-29T02:26:30.490Z,11.10
2023-04-29T02:29:00.443Z,11.10
2023-04-29T02:31:30.831Z,11.00
2023-04-29T02:34:00.856Z,11.00
2023-04-29T02:36:31.641Z,11.00
2023-04-29T02:39:01.790Z,11.00
2023-04-29T02:41:34.347Z,11.00
2023-04-29T02:44:04.277Z,11.00
2023-04-29T02:46:36.224Z,11.00
2023-04-29T02:49:06.607Z,11.00
2023-04-29T02:51:36.960Z,11.00
2023-04-29T02:54:07.046Z,10.90
2023-04-29T02:56:39.632Z,10.90
2023-04-29T02:59:09.849Z,10.90
2023-04-29T03:01:40.109Z,10.90
2023-04-29T03:04:10.519Z,11.00
2023-04-29T03:06:40.731Z,10.90
2023-04-29T03:09:10.783Z,10.90
2023-04-29T03:11:43.341Z,10.80
2023-04-29T03:14:13.287Z,10.70
2023-04-29T03:16:43.337Z,10.80
2023-04-29T03:19:13.302Z,10.80
2023-04-29T03:21:43.403Z,10.70
2023-04-29T03:24:13.455Z,10.80
2023-04-29T03:26:45.990Z,10.70
2023-04-29T03:29:15.936Z,10.70
2023-04-29T03:31:46.310Z,10.70
2023-04-29T03:34:17.093Z,10.60
2023-04-29T03:36:47.042Z,10.70
2023-04-29T03:39:17.009Z,10.70
2023-04-29T03:41:50.615Z,10.60
2023-04-29T03:44:20.581Z,10.60
2023-04-29T03:46:50.523Z,10.60
2023-04-29T03:49:20.544Z,10.60
2023-04-29T03:51:50.562Z,10.60
2023-04-29T03:54:20.608Z,10.70
2023-04-29T03:56:53.157Z,10.70
2023-04-29T03:59:23.356Z,10.60
2023-04-29T04:01:54.523Z,10.70
2023-04-29T04:04:24.766Z,10.70
2023-04-29T04:06:54.800Z,10.70
2023-04-29T04:09:24.763Z,10.70
2023-04-29T04:11:57.323Z,10.70
2023-04-29T04:14:27.789Z,10.70
2023-04-29T04:16:57.796Z,10.60
2023-04-29T04:19:29.299Z,10.60
2023-04-29T04:21:59.290Z,10.70
2023-04-29T04:24:29.225Z,10.80
2023-04-29T04:27:02.036Z,10.70
2023-04-29T04:29:32.006Z,10.70
2023-04-29T04:32:02.071Z,10.80
2023-04-29T04:34:32.521Z,10.80
2023-04-29T04:37:02.731Z,10.80
2023-04-29T04:39:32.686Z,10.80
2023-04-29T04:42:06.043Z,10.80
2023-04-29T04:44:36.131Z,10.90
2023-04-29T04:47:06.470Z,10.90
2023-04-29T04:49:36.412Z,10.90
2023-04-29T04:52:07.001Z,10.90
2023-04-29T04:54:38.516Z,10.90
2023-04-29T04:57:11.062Z,10.90
2023-04-29T04:59:41.025Z,10.90
2023-04-29T05:02:11.057Z,10.90
2023-04-29T05:04:41.033Z,10.90
2023-04-29T05:07:11.094Z,10.90
2023-04-29T05:09:41.048Z,11.00
2023-04-29T05:12:13.596Z,11.00
2023-04-29T05:14:43.600Z,11.00
2023-04-29T05:17:13.616Z,11.10
2023-04-29T05:19:43.878Z,11.10
2023-04-29T05:22:13.845Z,11.00
2023-04-29T05:24:43.805Z,11.10
2023-04-29T05:27:16.329Z,11.10
2023-04-29T05:29:46.498Z,11.10
2023-04-29T05:32:16.528Z,11.10
2023-04-29T05:34:46.666Z,11.10
2023-04-29T05:37:16.622Z,11.10
2023-04-29T05:39:46.588Z,11.10
2023-04-29T05:42:19.118Z,11.20
2023-04-29T05:44:49.071Z,11.10
2023-04-29T05:47:19.184Z,11.10
2023-04-29T05:49:49.285Z,11.10
2023-04-29T05:52:19.232Z,11.10
2023-04-29T05:54:49.171Z,11.20
2023-04-29T05:57:21.850Z,11.20
2023-04-29T05:59:51.920Z,11.20
2023-04-29T06:02:22.109Z,11.20
2023-04-29T06:04:52.321Z,11.30
2023-04-29T06:07:22.994Z,11.30
2023-04-29T06:09:53.391Z,11.30
2023-04-29T06:12:26.238Z,11.30
2023-04-29T06:14:56.358Z,11.30
2023-04-29T06:17:29.355Z,11.40
2023-04-29T06:19:59.471Z,11.40
2023-04-29T06:22:29.455Z,11.40
2023-04-29T06:24:59.404Z,11.50
2023-04-29T06:27:31.985Z,11.50
2023-04-29T06:30:01.950Z,11.50
2023-04-29T06:32:31.911Z,11.50
2023-04-29T06:35:01.887Z,11.50
2023-04-29T06:37:31.841Z,11.60
2023-04-29T06:40:01.819Z,11.60
2023-04-29T06:42:34.373Z,11.60
2023-04-29T06:45:04.993Z,11.60
2023-04-29T06:47:34.989Z,11.60
2023-04-29T06:50:05.308Z,11.70
2023-04-29T06:52:35.300Z,11.70
2023-04-29T06:55:05.680Z,11.70
2023-04-29T06:57:39.171Z,11.70
2023-04-29T07:00:11.718Z,11.70
2023-04-29T07:02:41.772Z,11.70
2023-04-29T07:05:13.104Z,11.70
2023-04-29T07:07:43.082Z,11.80
2023-04-29T07:10:13.685Z,11.80
2023-04-29T07:12:46.211Z,11.80
2023-04-29T07:15:16.236Z,11.70
2023-04-29T07:17:46.232Z,11.70
2023-04-29T07:20:17.533Z,11.80
2023-04-29T07:22:47.514Z,11.70
2023-04-29T07:25:17.735Z,11.80
2023-04-29T07:27:50.681Z,11.80
2023-04-29T07:30:20.732Z,11.80
2023-04-29T07:32:50.773Z,11.80
2023-04-29T07:35:21.452Z,11.80
2023-04-29T07:37:51.420Z,11.80
2023-04-29T07:40:21.464Z,11.80
2023-04-29T07:42:54.072Z,11.90
2023-04-29T07:45:24.021Z,11.90
2023-04-29T07:47:54.076Z,11.90
2023-04-29T07:50:24.074Z,11.90
2023-04-29T07:52:55.348Z,11.80
2023-04-29T07:55:27.216Z,11.80
2023-04-29T07:58:00.615Z,11.80
2023-04-29T08:00:31.601Z,11.80
2023-04-29T08:03:01.720Z,11.80
2023-04-29T08:05:32.464Z,11.80
2023-04-29T08:08:02.649Z,11.80
2023-04-29T08:10:32.712Z,11.80
2023-04-29T08:13:05.248Z,11.70
2023-04-29T08:15:35.209Z,11.70
2023-04-29T08:18:05.264Z,11.70
2023-04-29T08:20:35.349Z,11.70
2023-04-29T08:23:05.531Z,11.70
2023-04-29T08:25:35.565Z,11.70
2023-04-29T08:28:08.520Z,11.70
2023-04-29T08:30:42.736Z,11.70
2023-04-29T08:33:13.189Z,11.70
2023-04-29T08:35:43.360Z,11.60
2023-04-29T08:38:13.646Z,11.70
2023-04-29T08:40:47.167Z,11.70
2023-04-29T08:43:20.592Z,11.70
2023-04-29T08:45:52.636Z,11.70
2023-04-29T08:48:23.031Z,11.50
2023-04-29T08:50:53.318Z,11.50
2023-04-29T08:53:24.084Z,11.50
2023-04-29T08:55:54.289Z,11.50
2023-04-29T08:58:29.044Z,11.50
2023-04-29T09:01:00.218Z,11.40
2023-04-29T09:03:37.366Z,11.40
2023-04-29T09:06:09.293Z,11.40
2023-04-29T09:08:39.880Z,11.40
2023-04-29T09:11:12.741Z,11.40
2023-04-29T09:13:45.394Z,11.40
2023-04-29T09:16:15.926Z,11.40
2023-04-29T09:18:48.822Z,11.30
2023-04-29T09:21:22.834Z,11.20
2023-04-29T09:23:55.124Z,11.30
2023-04-29T09:26:25.795Z,11.30
2023-04-29T09:29:16.481Z,11.30
2023-04-29T09:31:47.269Z,11.30
2023-04-29T09:34:17.839Z,11.30
2023-04-29T09:36:50.100Z,11.30
2023-04-29T09:39:22.447Z,11.30
2023-04-29T09:42:03.865Z,11.20
2023-04-29T09:44:38.686Z,11.00
2023-04-29T09:47:10.724Z,11.00
2023-04-29T09:49:44.913Z,10.90
2023-04-29T09:52:20.823Z,10.90
2023-04-29T09:54:51.323Z,10.90
2023-04-29T09:57:25.682Z,10.80
2023-04-29T09:59:58.433Z,10.80
2023-04-29T10:02:30.633Z,10.70
2023-04-29T10:05:02.143Z,10.60
2023-04-29T10:07:32.799Z,10.70
2023-04-29T10:10:03.041Z,10.80
2023-04-29T10:12:34.317Z,10.80
2023-04-29T10:15:15.379Z,10.80
2023-04-29T10:17:49.866Z,10.80
2023-04-29T10:20:28.128Z,10.70
2023-04-29T10:23:00.104Z,10.70
2023-04-29T10:25:30.886Z,10.70
2023-04-29T10:28:04.443Z,10.60
2023-04-29T10:30:38.765Z,10.60
2023-04-29T10:33:11.076Z,10.70
2023-04-29T10:35:41.381Z,10.70
2023-04-29T10:38:20.228Z,10.70
2023-04-29T10:40:51.632Z,10.70
2023-04-29T10:43:27.000Z,10.60
2023-04-29T10:46:26.617Z,10.70
2023-04-29T10:49:03.834Z,10.60
2023-04-29T10:51:35.904Z,10.60
2023-04-29T10:54:11.074Z,10.60
2023-04-29T10:56:47.825Z,10.70
2023-04-29T10:59:19.817Z,10.70
2023-04-29T11:01:54.150Z,10.70
2023-04-29T11:04:26.000Z,10.80
2023-04-29T11:06:59.217Z,10.80
2023-04-29T11:09:31.565Z,10.80
2023-04-29T11:12:06.868Z,10.80
2023-04-29T11:14:41.427Z,10.90
2023-04-29T11:17:16.657Z,10.90
2023-04-29T11:19:49.810Z,11.00
2023-04-29T11:22:30.943Z,10.90
2023-04-29T11:25:03.272Z,11.10
2023-04-29T11:27:35.745Z,11.30
2023-04-29T11:30:09.432Z,11.40
2023-04-29T11:32:44.850Z,11.30
2023-04-29T11:35:17.421Z,11.40
2023-04-29T11:37:49.732Z,11.40
2023-04-29T11:40:19.671Z,11.40
2023-04-29T11:42:51.351Z,11.40
2023-04-29T11:45:22.717Z,11.40
2023-04-29T11:47:56.101Z,11.50
2023-04-29T11:50:26.306Z,11.50
2023-04-29T11:52:56.463Z,11.50
2023-04-29T11:55:26.792Z,11.50
2023-04-29T11:57:56.799Z,11.50
2023-04-29T12:00:28.157Z,11.60
2023-04-29T12:03:02.133Z,11.60
2023-04-29T12:05:32.708Z,11.80
2023-04-29T12:08:02.783Z,11.90
2023-04-29T12:10:33.727Z,12.10
2023-04-29T12:13:03.756Z,12.10
2023-04-29T12:15:34.550Z,12.20
2023-04-29T12:18:07.326Z,12.30
2023-04-29T12:20:39.393Z,12.40
2023-04-29T12:23:16.305Z,12.40
2023-04-29T12:25:53.245Z,12.40
2023-04-29T12:28:24.183Z,12.50
2023-04-29T12:30:56.848Z,12.40
2023-04-29T12:33:32.402Z,12.40
2023-04-29T12:36:02.630Z,12.40
2023-04-29T12:38:35.036Z,12.40
2023-04-29T12:41:07.655Z,12.40
2023-04-29T12:43:37.659Z,12.30
2023-04-29T12:46:09.423Z,12.30
2023-04-29T12:48:44.092Z,12.30
2023-04-29T12:51:13.976Z,12.30
2023-04-29T12:53:44.061Z,12.30
2023-04-29T12:56:15.300Z,12.20
2023-04-29T12:58:45.244Z,12.20
2023-04-29T13:01:18.394Z,12.20
2023-04-29T13:03:51.840Z,12.20
2023-04-29T13:06:21.969Z,12.20
2023-04-29T13:08:52.374Z,12.10
2023-04-29T13:11:22.366Z,12.20
2023-04-29T13:13:52.874Z,12.20
2023-04-29T13:16:25.237Z,12.30
2023-04-29T13:19:05.228Z,12.40
2023-04-29T13:21:38.492Z,12.50
2023-04-29T13:24:10.658Z,12.50
2023-04-29T13:26:41.630Z,12.60
2023-04-29T13:29:11.636Z,12.60
2023-04-29T13:31:44.168Z,12.60
2023-04-29T13:34:17.020Z,12.70
2023-04-29T13:36:47.324Z,12.70
2023-04-29T13:39:20.027Z,12.80
2023-04-29T13:41:51.155Z,12.90
2023-04-29T13:44:29.635Z,12.90
2023-04-29T13:47:06.512Z,13.00
2023-04-29T13:53:07.316Z,13.00
2023-04-29T14:00:31.537Z,13.20
2023-04-29T14:03:03.600Z,13.20
2023-04-29T14:05:37.087Z,13.10
2023-04-29T14:08:07.782Z,13.20
2023-04-29T14:10:38.047Z,13.30
2023-04-29T14:13:08.162Z,13.40
2023-04-29T14:15:38.386Z,13.40
2023-04-29T14:18:09.759Z,13.30
2023-04-29T14:20:42.434Z,13.30
2023-04-29T14:23:12.549Z,13.30
2023-04-29T14:25:42.806Z,13.30
2023-04-29T14:28:12.933Z,13.40
2023-04-29T14:30:46.200Z,13.40
2023-04-29T14:33:17.112Z,13.40
2023-04-29T14:35:49.800Z,13.40
2023-04-29T14:38:19.960Z,13.40
2023-04-29T14:40:50.305Z,13.40
2023-04-29T14:43:20.376Z,13.40
2023-04-29T14:45:50.627Z,13.50
2023-04-29T14:48:20.733Z,13.40
2023-04-29T14:50:53.449Z,13.40
2023-04-29T14:53:24.166Z,13.40
2023-04-29T14:55:54.268Z,13.40
2023-04-29T14:58:24.388Z,13.40
2023-04-29T15:00:55.148Z,13.50
2023-04-29T15:03:25.649Z,13.50
2023-04-29T15:05:58.981Z,13.50
2023-04-29T15:08:29.136Z,13.50
2023-04-29T15:10:59.221Z,13.60
2023-04-29T15:13:31.422Z,13.60
2023-04-29T15:16:02.139Z,13.60
2023-04-29T15:18:32.307Z,13.60
2023-04-29T15:21:04.976Z,13.70
2023-04-29T15:23:35.254Z,13.70
2023-04-29T15:26:05.423Z,13.70
2023-04-29T15:28:35.819Z,13.70
2023-04-29T15:31:06.485Z,13.70
2023-04-29T15:33:36.805Z,13.70
2023-04-29T15:36:10.223Z,13.70
2023-04-29T15:38:40.177Z,13.80
2023-04-29T15:41:10.140Z,13.70
2023-04-29T15:43:40.475Z,13.80
2023-04-29T15:46:10.499Z,13.80
2023-04-29T15:48:40.493Z,13.80
2023-04-29T15:51:15.232Z,13.80
2023-04-29T15:53:45.348Z,13.80
2023-04-29T15:56:15.317Z,13.80
2023-04-29T15:58:45.260Z,13.80
2023-04-29T16:01:15.312Z,13.80
2023-04-29T16:03:45.371Z,13.70
2023-04-29T16:06:19.455Z,13.70
2023-04-29T16:08:50.316Z,13.60
2023-04-29T16:11:20.268Z,13.60
2023-04-29T16:13:50.209Z,13.60
2023-04-29T16:16:20.205Z,13.60
2023-04-29T16:18:50.164Z,13.50
2023-04-29T16:21:22.904Z,13.50
2023-04-29T16:23:53.076Z,13.50
2023-04-29T16:26:23.109Z,13.40
2023-04-29T16:28:53.229Z,13.40
2023-04-29T16:31:23.788Z,13.50
2023-04-29T16:33:57.196Z,13.50
2023-04-29T16:36:30.285Z,13.50
2023-04-29T16:39:00.222Z,13.40
2023-04-29T16:41:30.193Z,13.40
2023-04-29T16:44:00.547Z,13.40
2023-04-29T16:46:30.763Z,13.30
2023-04-29T16:49:00.924Z,13.30
2023-04-29T16:51:33.657Z,13.30
2023-04-29T16:54:03.757Z,13.30
2023-04-29T16:56:33.685Z,13.20
2023-04-29T16:59:03.816Z,13.30
2023-04-29T17:01:33.850Z,13.30
2023-04-29T17:04:04.264Z,13.30
2023-04-29T17:06:37.170Z,13.30
2023-04-29T17:09:07.676Z,13.20
2023-04-29T17:11:37.686Z,13.30
2023-04-29T17:14:07.735Z,13.20
2023-04-29T17:16:37.924Z,13.20
2023-04-29T17:19:08.366Z,13.20
2023-04-29T17:21:40.906Z,13.10
2023-04-29T17:24:10.867Z,13.10
2023-04-29T17:26:40.973Z,13.10
2023-04-29T17:29:12.279Z,13.10
2023-04-29T17:31:54.547Z,13.10
2023-04-29T17:34:28.930Z,13.10
2023-04-29T17:37:01.755Z,13.10
2023-04-29T17:39:31.938Z,13.00
2023-04-29T17:42:02.258Z,13.00
2023-04-29T17:44:32.210Z,13.00
2023-04-29T17:47:02.197Z,12.90
2023-04-29T17:49:32.185Z,12.90
2023-04-29T17:52:04.961Z,12.80
2023-04-29T17:54:34.932Z,12.70
2023-04-29T17:57:04.887Z,12.70
2023-04-29T17:59:34.902Z,12.60
2023-04-29T18:02:04.924Z,12.60
2023-04-29T18:04:34.896Z,12.60
2023-04-29T18:07:07.410Z,12.50
2023-04-29T18:09:37.641Z,12.40
2023-04-29T18:12:08.205Z,12.40
2023-04-29T18:14:39.336Z,12.30
2023-04-29T18:17:09.327Z,12.30
2023-04-29T18:19:39.281Z,12.20
2023-04-29T18:22:11.851Z,12.20
2023-04-29T18:24:41.830Z,12.20
2023-04-29T18:27:11.845Z,12.10
2023-04-29T18:29:41.811Z,12.00
2023-04-29T18:32:12.125Z,12.00
2023-04-29T18:34:42.496Z,11.90
2023-04-29T18:37:15.063Z,11.90
2023-04-29T18:39:45.039Z,11.90
2023-04-29T18:42:15.126Z,11.80
2023-04-29T18:44:45.863Z,11.80
2023-04-29T18:47:15.854Z,11.70
2023-04-29T18:49:46.019Z,11.70
2023-04-29T18:52:19.000Z,11.60
2023-04-29T18:54:49.156Z,11.60
2023-04-29T18:57:19.174Z,11.60
2023-04-29T18:59:49.454Z,11.60
2023-04-29T19:02:19.399Z,11.50
2023-04-29T19:04:49.409Z,11.40
2023-04-29T19:07:21.989Z,11.40
2023-04-29T19:09:52.277Z,11.30
2023-04-29T19:12:22.741Z,11.30
2023-04-29T19:14:52.756Z,11.20
2023-04-29T19:17:22.834Z,11.10
2023-04-29T19:19:53.165Z,11.10
2023-04-29T19:22:25.967Z,11.00
2023-04-29T19:24:56.091Z,11.00
2023-04-29T19:27:26.080Z,10.90
2023-04-29T19:29:56.220Z,10.80
2023-04-29T19:32:28.223Z,10.80
2023-04-29T19:35:00.093Z,10.70
2023-04-29T19:37:32.739Z,10.60
2023-04-29T19:40:02.784Z,10.50
2023-04-29T19:42:33.004Z,10.50
2023-04-29T19:45:03.216Z,10.40
2023-04-29T19:47:33.239Z,10.40
2023-04-29T19:50:03.196Z,10.30
2023-04-29T19:52:35.764Z,10.20
2023-04-29T19:55:06.116Z,10.20
2023-04-29T19:57:36.110Z,10.10
2023-04-29T20:00:07.248Z,10.00
2023-04-29T20:02:37.484Z,10.00
2023-04-29T20:05:08.881Z,10.00
2023-04-29T20:07:41.656Z,9.90
2023-04-29T20:10:12.846Z,9.90
2023-04-29T20:12:43.068Z,9.90
2023-04-29T20:15:14.306Z,9.90
2023-04-29T20:17:44.403Z,9.80
2023-04-29T20:20:14.869Z,9.80
2023-04-29T20:22:47.498Z,9.80
2023-04-29T20:25:17.689Z,9.80
2023-04-29T20:27:47.745Z,9.90
2023-04-29T20:30:17.726Z,9.90
2023-04-29T20:32:48.464Z,9.90
2023-04-29T20:35:18.700Z,9.90
2023-04-29T20:37:51.564Z,9.90
2023-04-29T20:40:22.056Z,9.80
2023-04-29T20:42:52.039Z,9.70
2023-04-29T20:45:22.352Z,9.80
2023-04-29T20:47:53.016Z,9.70
2023-04-29T20:50:23.772Z,9.70
2023-04-29T20:52:56.364Z,9.60
2023-04-29T20:55:26.701Z,9.60
2023-04-29T20:57:56.869Z,9.50
2023-04-29T21:00:26.861Z,9.50
2023-04-29T21:02:56.867Z,9.50
2023-04-29T21:05:26.963Z,9.40
2023-04-29T21:07:59.516Z,9.30
2023-04-29T21:10:29.463Z,9.20
2023-04-29T21:12:59.436Z,9.20
2023-04-29T21:15:29.797Z,9.20
2023-04-29T21:17:59.917Z,9.20
2023-04-29T21:20:30.467Z,9.20
2023-04-29T21:23:03.079Z,9.20
2023-04-29T21:25:33.157Z,9.20
2023-04-29T21:28:04.055Z,9.10
2023-04-29T21:30:34.040Z,9.10
2023-04-29T21:33:04.171Z,9.10
2023-04-29T21:35:34.200Z,9.10
2023-04-29T21:38:06.713Z,9.10
2023-04-29T21:40:36.680Z,9.10
2023-04-29T21:43:06.720Z,9.10
2023-04-29T21:45:36.959Z,9.10
2023-04-29T21:48:17.072Z,9.00
2023-04-29T21:50:48.002Z,9.00
2023-04-29T21:53:20.538Z,9.00
2023-04-29T21:55:50.531Z,9.10
2023-04-29T21:58:21.109Z,9.20
2023-04-29T22:00:58.562Z,9.20
2023-04-29T22:03:28.727Z,9.20
2023-04-29T22:05:59.196Z,9.20
2023-04-29T22:08:31.794Z,9.20
2023-04-29T22:11:01.726Z,9.20
2023-04-29T22:13:31.702Z,9.20
2023-04-29T22:16:01.669Z,9.20
2023-04-29T22:18:31.710Z,9.20
2023-04-29T22:21:01.721Z,9.20
2023-04-29T22:23:34.324Z,9.10
2023-04-29T22:26:04.383Z,9.10
2023-04-29T22:28:34.353Z,9.10
2023-04-29T22:31:04.337Z,9.10
2023-04-29T22:33:35.165Z,9.00
2023-04-29T22:36:05.463Z,9.10
2023-04-29T22:38:38.052Z,9.10
2023-04-29T22:41:09.751Z,9.10
2023-04-29T22:43:39.741Z,9.10
2023-04-29T22:46:09.983Z,9.00
2023-04-29T22:48:40.021Z,8.90
2023-04-29T22:51:09.997Z,8.90
2023-04-29T22:53:42.542Z,8.90
2023-04-29T22:56:12.617Z,8.80
2023-04-29T22:58:42.555Z,8.80
2023-04-29T23:01:12.579Z,8.80
2023-04-29T23:03:42.587Z,8.80
2023-04-29T23:06:12.611Z,8.70
2023-04-29T23:08:45.178Z,8.70
2023-04-29T23:11:15.154Z,8.70
2023-04-29T23:13:45.211Z,8.70
2023-04-29T23:16:15.481Z,8.60
2023-04-29T23:18:45.465Z,8.60
2023-04-29T23:21:15.443Z,8.50
2023-04-29T23:23:47.998Z,8.40
2023-04-29T23:26:17.958Z,8.40
2023-04-29T23:28:47.951Z,8.30
2023-04-29T23:31:18.008Z,8.30
2023-04-29T23:33:48.875Z,8.30
2023-04-29T23:36:18.808Z,8.20
2023-04-29T23:38:51.334Z,8.10
2023-04-29T23:41:21.428Z,8.10
2023-04-29T23:43:51.395Z,8.00
2023-04-29T23:46:21.446Z,7.90
2023-04-29T23:48:51.405Z,7.80
2023-04-29T23:51:21.349Z,7.80
2023-04-29T23:53:53.888Z,7.80
2023-04-29T23:56:24.998Z,7.80
2023-04-29T23:58:54.928Z,7.80
